Time;durP1;ratioP1;P1;durP2;ratioP2;P2;SDS_P1;SDS_P2;PMS_P1;PMS_P2;Temp;Humidity;BMP_temperature;BMP_pressure;BME280_temperature;BME280_humidity;BME280_pressure;Samples;Min_cycle;Max_cycle;Signal;HPM_P1;HPM_P2
2022/05/22 00:00:22;;;;;;;6.05;3.42;;;;;;;15.88;52.34;101874.38;4891188;28;124496;-74
2022/05/22 00:02:49;;;;;;;8.82;3.13;;;;;;;15.86;52.28;101877.13;4903763;28;123524;-74
2022/05/22 00:05:20;;;;;;;5.60;3.10;;;;;;;15.85;52.44;101879.88;4907538;28;119163;-74
2022/05/22 00:07:47;;;;;;;5.40;3.20;;;;;;;15.83;52.31;101873.75;4905910;28;120164;-75
2022/05/22 00:10:15;;;;;;;8.48;3.28;;;;;;;15.80;52.48;101877.44;4904436;28;124256;-75
2022/05/22 00:12:43;;;;;;;7.25;3.40;;;;;;;15.78;52.50;101873.97;4901660;28;124977;-75
2022/05/22 00:15:12;;;;;;;5.45;3.08;;;;;;;15.74;52.67;101857.22;4901317;28;119760;-75
2022/05/22 00:17:40;;;;;;;4.90;3.22;;;;;;;15.70;52.59;101871.66;4906283;28;119330;-75
2022/05/22 00:20:09;;;;;;;8.20;3.50;;;;;;;15.68;52.69;101857.50;4914430;28;123905;-75
2022/05/22 00:22:37;;;;;;;4.88;3.13;;;;;;;15.64;52.91;101853.28;4904291;28;123643;-75
2022/05/22 00:25:05;;;;;;;6.10;3.53;;;;;;;15.61;52.80;101849.88;4904528;28;120164;-75
2022/05/22 00:27:33;;;;;;;5.75;3.40;;;;;;;15.57;52.82;101843.84;4908556;28;118872;-75
2022/05/22 00:30:00;;;;;;;5.07;3.33;;;;;;;15.53;52.85;101850.28;4905242;28;122072;-75
2022/05/22 00:32:27;;;;;;;6.78;3.45;;;;;;;15.51;52.97;101844.16;4910714;28;123605;-75
2022/05/22 00:34:55;;;;;;;6.15;3.13;;;;;;;15.48;53.02;101844.28;4898606;28;119983;-75
2022/05/22 00:37:24;;;;;;;6.47;3.00;;;;;;;15.44;53.15;101840.06;4906232;28;118781;-75
2022/05/22 00:39:53;;;;;;;5.15;3.67;;;;;;;15.41;53.17;101832.19;4890035;28;124167;-75
2022/05/22 00:42:23;;;;;;;8.43;3.60;;;;;;;15.38;53.17;101836.72;4905211;28;123161;-75
2022/05/22 00:44:51;;;;;;;6.55;3.20;;;;;;;15.37;53.28;101832.34;4900883;28;119869;-75
2022/05/22 00:47:18;;;;;;;6.50;3.40;;;;;;;15.34;53.21;101827.16;4908076;28;118527;-75
2022/05/22 00:49:46;;;;;;;7.82;3.92;;;;;;;15.32;53.33;101829.03;4906848;28;124389;-75
2022/05/22 00:52:19;;;;;;;5.78;3.50;;;;;;;15.29;53.38;101834.50;4895530;28;123731;-75
2022/05/22 00:54:58;;;;;;;7.07;3.55;;;;;;;15.28;53.37;101837.28;4905630;28;118610;-75
2022/05/22 00:57:33;;;;;;;8.25;3.35;;;;;;;15.25;53.48;101832.94;4907975;28;117935;-75
2022/05/22 01:00:11;;;;;;;7.13;3.55;;;;;;;15.24;53.62;101836.56;4912072;28;123157;-75
2022/05/22 01:05:29;;;;;;;5.13;3.15;;;;;;;15.16;53.27;101833.38;4915593;28;118979;-75
2022/05/22 01:07:57;;;;;;;4.15;3.10;;;;;;;15.13;53.41;101836.22;4898253;28;120298;-75
2022/05/22 01:10:32;;;;;;;5.60;3.28;;;;;;;15.10;53.48;101833.69;4906080;28;123587;-75
2022/05/22 01:13:00;;;;;;;6.93;3.50;;;;;;;15.08;53.43;101830.22;4888976;28;124353;-75
2022/05/22 01:15:28;;;;;;;6.00;3.30;;;;;;;15.03;53.63;101822.47;4893131;28;120471;-75
2022/05/22 01:17:55;;;;;;;8.10;3.97;;;;;;;15.01;53.66;101812.78;4906133;28;119131;-74
2022/05/22 01:20:22;;;;;;;5.45;3.22;;;;;;;14.96;53.67;101811.22;4904811;28;124267;-75
2022/05/22 01:22:49;;;;;;;5.50;3.58;;;;;;;14.93;53.70;101816.69;4899115;28;123883;-76
2022/05/22 01:25:17;;;;;;;7.55;3.42;;;;;;;14.90;53.69;101826.63;4901918;28;120022;-77
2022/05/22 01:27:44;;;;;;;6.93;3.47;;;;;;;14.87;53.90;101827.66;4880829;28;119648;-77
2022/05/22 01:30:27;;;;;;;6.60;3.33;;;;;;;14.83;53.89;101820.75;4907341;28;123666;-77
2022/05/22 01:33:00;;;;;;;7.70;3.28;;;;;;;14.83;53.75;101826.06;4895442;28;123913;-77
2022/05/22 01:35:28;;;;;;;4.63;3.17;;;;;;;14.81;53.84;101833.28;4892842;28;119031;-77
2022/05/22 01:37:59;;;;;;;6.32;3.42;;;;;;;14.79;53.96;101819.16;4921063;28;118400;-77
2022/05/22 01:40:26;;;;;;;4.07;3.38;;;;;;;14.77;54.00;101815.69;4911283;28;123468;-77
2022/05/22 01:42:53;;;;;;;5.95;3.45;;;;;;;14.75;54.08;101822.91;4898629;28;124618;-77
2022/05/22 01:45:24;;;;;;;6.95;3.58;;;;;;;14.74;54.23;101805.16;4903579;28;119538;-78
2022/05/22 01:47:52;;;;;;;7.68;3.55;;;;;;;14.73;54.16;101806.09;4904935;28;118087;-77
2022/05/22 01:50:28;;;;;;;8.53;3.90;;;;;;;14.72;54.30;101804.38;4909552;28;123672;-77
2022/05/22 01:52:55;;;;;;;5.50;3.20;;;;;;;14.71;54.32;101799.97;4905829;28;122354;-78
2022/05/22 01:55:22;;;;;;;7.50;3.85;;;;;;;14.70;54.44;101803.59;4897927;28;118893;-77
2022/05/22 01:57:50;;;;;;;6.93;3.30;;;;;;;14.69;54.34;101801.84;4906195;28;118412;-77
2022/05/22 02:00:23;;;;;;;6.25;3.65;;;;;;;14.67;54.41;101793.06;4903292;28;123824;-77
2022/05/22 02:02:56;;;;;;;6.03;3.65;;;;;;;14.66;54.46;101791.34;4904653;28;123605;-77
2022/05/22 02:05:31;;;;;;;7.13;3.42;;;;;;;14.64;54.42;101793.22;4903976;28;119342;-78
2022/05/22 02:10:56;;;;;;;7.18;3.60;;;;;;;14.58;54.47;101797.91;4874836;28;123802;-77
2022/05/22 02:13:31;;;;;;;7.40;3.53;;;;;;;14.55;54.52;101803.31;4910594;28;123725;-77
2022/05/22 02:15:58;;;;;;;3.35;2.50;;;;;;;14.52;54.50;101805.25;4907675;28;118923;-77
2022/05/22 02:18:28;;;;;;;4.82;2.70;;;;;;;14.47;54.59;101794.81;4906421;28;118452;-77
2022/05/22 02:20:56;;;;;;;6.30;2.95;;;;;;;14.45;54.71;101799.38;4891938;28;126321;-77
2022/05/22 02:23:23;;;;;;;4.70;2.92;;;;;;;14.42;54.80;101794.16;4904311;28;123594;-76
2022/05/22 02:25:53;;;;;;;5.43;2.92;;;;;;;14.39;54.89;101784.53;4916365;28;119014;-77
2022/05/22 02:28:23;;;;;;;6.78;3.20;;;;;;;14.39;54.76;101778.31;4894919;28;119164;-77
2022/05/22 02:30:57;;;;;;;4.35;2.88;;;;;;;14.38;54.94;101776.59;4902698;28;123486;-77
2022/05/22 02:33:26;;;;;;;4.72;3.03;;;;;;;14.37;54.84;101769.50;4906161;28;123301;-76
2022/05/22 02:36:00;;;;;;;5.03;3.03;;;;;;;14.36;54.80;101773.13;4915042;28;118929;-76
2022/05/22 02:38:33;;;;;;;5.57;2.80;;;;;;;14.33;54.83;101773.25;4890831;28;118572;-76
2022/05/22 02:41:08;;;;;;;4.78;3.22;;;;;;;14.28;54.87;101760.16;4905178;28;123329;-76
2022/05/22 02:43:35;;;;;;;4.78;3.45;;;;;;;14.27;54.58;101762.91;4912624;28;122952;-77
2022/05/22 02:46:17;;;;;;;5.25;3.45;;;;;;;14.23;54.77;101762.16;4897550;28;118990;-77
2022/05/22 02:48:46;;;;;;;6.32;3.58;;;;;;;14.19;54.70;101765.91;4906128;28;118424;-77
2022/05/22 02:51:16;;;;;;;4.60;3.50;;;;;;;14.13;54.85;101761.72;4893998;28;124202;-76
2022/05/22 02:53:43;;;;;;;5.25;3.45;;;;;;;14.09;54.88;101765.47;4908832;28;123475;-76
2022/05/22 02:56:26;;;;;;;5.07;3.60;;;;;;;14.06;54.96;101754.09;4903493;28;120032;-77
2022/05/22 02:59:04;;;;;;;7.03;3.78;;;;;;;14.01;54.91;101751.59;4892072;28;120118;-77
2022/05/22 03:01:39;;;;;;;;;;;;;;;13.98;54.53;101743.78;4906785;28;123603;-76
2022/05/22 03:04:07;;;;;;;5.72;3.70;;;;;;;13.96;54.80;101748.31;4897258;28;124066;-77
2022/05/22 03:06:40;;;;;;;6.90;3.22;;;;;;;13.94;54.83;101750.19;4904302;28;118604;-77
2022/05/22 03:09:14;;;;;;;6.22;3.80;;;;;;;13.90;54.93;101759.22;4899976;28;118422;-77
2022/05/22 03:11:45;;;;;;;5.82;3.50;;;;;;;13.87;54.87;101756.69;4891611;28;122336;-77
2022/05/22 03:14:14;;;;;;;5.93;3.80;;;;;;;13.83;54.88;101756.81;4894420;28;124570;-76
2022/05/22 03:16:41;;;;;;;7.60;3.58;;;;;;;13.80;55.05;101758.75;4905021;28;118817;-77
2022/05/22 03:19:19;;;;;;;6.75;3.97;;;;;;;13.76;55.11;101763.34;4894508;28;118467;-77
2022/05/22 03:21:46;;;;;;;8.07;3.90;;;;;;;13.74;55.20;101759.88;4899626;28;123940;-77
2022/05/22 03:24:14;;;;;;;6.43;3.90;;;;;;;13.73;55.21;101758.19;4900533;28;124130;-77
2022/05/22 03:26:49;;;;;;;5.53;3.92;;;;;;;13.72;55.20;101750.25;4900058;28;119223;-77
2022/05/22 03:29:17;;;;;;;7.63;3.88;;;;;;;13.71;55.52;101741.41;4896303;28;121129;-77
2022/05/22 03:31:47;;;;;;;5.35;3.97;;;;;;;13.70;55.25;101737.00;4903586;28;124803;-77
2022/05/22 03:34:14;;;;;;;9.25;3.90;;;;;;;13.68;55.24;101728.22;4893496;28;123414;-77
2022/05/22 03:36:48;;;;;;;5.93;3.85;;;;;;;13.66;55.34;101740.72;4897162;28;119097;-77
2022/05/22 03:39:17;;;;;;;7.10;3.70;;;;;;;13.66;55.35;101740.72;4906155;28;117637;-77
2022/05/22 03:41:45;;;;;;;5.82;3.70;;;;;;;13.65;55.58;101739.00;4887913;28;124127;-76
2022/05/22 03:44:13;;;;;;;6.82;4.07;;;;;;;13.66;55.69;101740.72;4903259;28;123128;-77
2022/05/22 03:46:47;;;;;;;6.43;3.95;;;;;;;13.67;55.77;101742.44;4899135;28;120594;-77
2022/05/22 03:49:18;;;;;;;6.43;3.88;;;;;;;13.69;55.95;101735.25;4901575;28;119610;-76
2022/05/22 03:51:47;;;;;;;6.25;3.80;;;;;;;13.69;55.92;101735.25;4908234;28;124362;-76
2022/05/22 03:54:17;;;;;;;6.80;4.28;;;;;;;13.71;55.96;101738.75;4908698;28;123525;-76
2022/05/22 03:56:48;;;;;;;7.40;4.00;;;;;;;13.74;55.85;101735.06;4899074;28;118569;-76
2022/05/22 03:59:39;;;;;;;7.13;3.78;;;;;;;13.75;56.00;101729.69;4893160;28;119198;-76
2022/05/22 04:02:09;;;;;;;7.25;3.72;;;;;;;13.77;56.01;101722.50;4911297;28;123816;-76
2022/05/22 04:04:37;;;;;;;7.45;3.83;;;;;;;13.77;56.03;101721.63;4898186;28;122443;-76
2022/05/22 04:07:20;;;;;;;7.10;3.88;;;;;;;13.78;56.07;101724.19;4887016;28;119313;-76
2022/05/22 04:09:49;;;;;;;7.10;4.65;;;;;;;13.80;56.08;101727.66;4904163;28;118914;-76
2022/05/22 04:12:30;;;;;;;11.63;4.22;;;;;;;13.80;56.08;101733.00;4917309;28;123354;-77
2022/05/22 04:14:58;;;;;;;6.30;4.07;;;;;;;13.83;56.05;101738.19;4917509;28;122945;-78
2022/05/22 04:17:25;;;;;;;9.40;4.28;;;;;;;13.85;56.04;101729.28;4889437;28;119016;-77
2022/05/22 04:19:55;;;;;;;6.65;4.32;;;;;;;13.86;56.12;101729.19;4906410;28;119498;-75
2022/05/22 04:22:22;;;;;;;5.07;4.15;;;;;;;13.85;56.10;101732.81;4902520;28;124161;-75
2022/05/22 04:27:41;;;;;;;5.10;4.10;;;;;;;13.88;56.09;101723.78;4928425;28;117935;-74
2022/05/22 04:30:17;;;;;;;8.40;4.65;;;;;;;13.90;56.17;101716.59;4929810;28;117391;-75
2022/05/22 04:32:49;;;;;;;7.85;4.60;;;;;;;13.93;56.42;101712.00;4924602;28;123674;-75
2022/05/22 04:35:19;;;;;;;7.93;4.68;;;;;;;13.97;56.45;101712.72;4908318;28;123420;-75
2022/05/22 04:37:46;;;;;;;8.75;5.38;;;;;;;14.00;56.73;101709.94;4905587;28;119319;-75
2022/05/22 04:40:14;;;;;;;10.20;5.43;;;;;;;14.06;56.61;101712.31;4917039;28;119136;-73
2022/05/22 04:42:41;;;;;;;9.30;5.97;;;;;;;14.12;56.88;101716.50;4902489;28;123104;-76
2022/05/22 04:45:10;;;;;;;9.07;5.30;;;;;;;14.19;57.27;101718.81;4907615;28;123664;-75
2022/05/22 04:47:55;;;;;;;11.27;6.45;;;;;;;14.32;57.73;101712.91;4905858;28;118456;-76
2022/05/22 04:50:34;;;;;;;9.27;5.88;;;;;;;14.44;57.88;101722.13;4890518;28;118471;-74
2022/05/22 04:53:23;;;;;;;9.60;5.60;;;;;;;14.55;57.72;101726.00;4898962;28;124700;-74
2022/05/22 04:56:10;;;;;;;9.50;6.53;;;;;;;14.67;57.63;101729.06;4895818;28;123954;-74
2022/05/22 04:58:46;;;;;;;9.45;5.75;;;;;;;14.75;57.39;101726.91;4906179;28;118937;-74
2022/05/22 05:01:16;;;;;;;11.57;5.88;;;;;;;14.81;57.20;101721.28;4896476;28;118961;-74
2022/05/22 05:03:54;;;;;;;10.55;5.78;;;;;;;14.86;57.04;101718.38;4905465;28;123547;-75
2022/05/22 05:06:21;;;;;;;11.18;6.20;;;;;;;14.90;57.09;101720.81;4908669;28;123714;-75
2022/05/22 05:08:52;;;;;;;8.93;5.93;;;;;;;14.94;57.12;101710.88;4911517;28;118423;-75
2022/05/22 05:11:24;;;;;;;11.95;5.65;;;;;;;14.95;57.14;101708.09;4906481;28;118462;-75
2022/05/22 05:13:57;;;;;;;9.48;5.50;;;;;;;15.01;57.20;101701.59;4905782;28;123250;-75
2022/05/22 05:16:24;;;;;;;9.77;5.38;;;;;;;15.06;57.32;101709.38;4896178;28;123903;-75
2022/05/22 05:18:58;;;;;;;11.70;6.18;;;;;;;15.11;57.26;101707.38;4917968;28;118379;-74
2022/05/22 05:21:26;;;;;;;9.68;5.72;;;;;;;15.17;57.32;101707.03;4905267;28;118509;-74
2022/05/22 05:23:57;;;;;;;12.82;6.22;;;;;;;15.23;57.38;101712.06;4905790;28;123571;-74
2022/05/22 05:26:27;;;;;;;12.93;6.25;;;;;;;15.29;57.41;101710.88;4898866;28;124224;-74
2022/05/22 05:28:58;;;;;;;14.98;6.30;;;;;;;15.34;57.57;101712.38;4904660;28;119486;-74
2022/05/22 05:31:32;;;;;;;11.30;6.70;;;;;;;15.38;57.38;101711.28;4921696;28;118016;-74
2022/05/22 05:34:06;;;;;;;13.63;6.22;;;;;;;15.43;57.44;101707.53;4906848;28;123115;-74
2022/05/22 05:36:47;;;;;;;11.38;6.13;;;;;;;15.48;57.61;101716.13;4899949;28;123063;-74
2022/05/22 05:39:28;;;;;;;10.05;5.78;;;;;;;15.53;57.42;101719.44;4895513;28;119039;-74
2022/05/22 05:42:02;;;;;;;10.57;5.93;;;;;;;15.58;57.50;101712.06;4904321;28;119595;-74
2022/05/22 05:44:33;;;;;;;12.00;6.03;;;;;;;15.66;57.83;101715.19;4878180;28;123887;-74
2022/05/22 05:47:30;;;;;;;8.80;5.40;;;;;;;15.72;57.69;101712.19;4896097;28;123971;-74
2022/05/22 05:50:07;;;;;;;9.13;6.03;;;;;;;15.79;57.69;101714.59;4896757;28;119776;-74
2022/05/22 05:53:01;;;;;;;10.73;5.75;;;;;;;15.88;57.78;101708.72;4899923;28;119108;-74
2022/05/22 05:55:43;;;;;;;10.88;5.45;;;;;;;15.98;57.78;101709.13;4895379;28;124731;-75
2022/05/22 05:58:39;;;;;;;10.38;5.57;;;;;;;16.07;57.58;101709.47;4913087;28;123613;-75
2022/05/22 06:01:26;;;;;;;8.70;4.93;;;;;;;16.19;57.62;101701.75;4913745;28;119007;-74
2022/05/22 06:03:55;;;;;;;11.85;5.53;;;;;;;16.30;57.54;101710.03;4907384;28;118622;-74
2022/05/22 06:06:22;;;;;;;9.48;5.45;;;;;;;16.40;57.64;101705.88;4888447;28;123714;-74
2022/05/22 06:08:52;;;;;;;11.00;5.53;;;;;;;16.53;57.62;101711.41;4903164;28;123379;-75
2022/05/22 06:11:28;;;;;;;10.48;5.15;;;;;;;16.67;57.71;101708.84;4920863;28;119342;-74
2022/05/22 06:13:59;;;;;;;8.07;4.80;;;;;;;16.81;57.59;101712.53;4894345;28;119705;-75
2022/05/22 06:16:28;;;;;;;7.85;4.80;;;;;;;16.95;57.37;101711.75;4906126;28;123582;-75
2022/05/22 06:19:00;;;;;;;11.10;4.63;;;;;;;17.07;57.17;101708.38;4880233;28;123327;-75
2022/05/22 06:21:28;;;;;;;7.05;4.45;;;;;;;17.19;57.22;101704.97;4922354;28;119542;-75
2022/05/22 06:23:55;;;;;;;9.48;4.60;;;;;;;17.36;56.89;101712.00;4896977;28;119603;-74
2022/05/22 06:26:55;;;;;;;8.27;4.65;;;;;;;17.55;56.77;101714.44;4909648;28;124199;-75
2022/05/22 06:29:51;;;;;;;8.68;4.72;;;;;;;17.73;56.36;101708.91;4894930;28;124269;-73
2022/05/22 06:32:20;;;;;;;7.28;4.18;;;;;;;17.85;55.87;101708.19;4895024;28;119263;-74
2022/05/22 06:35:10;;;;;;;7.70;4.00;;;;;;;17.97;55.80;101710.13;4898477;28;120014;-75
2022/05/22 06:41:18;;;;;;;7.82;3.40;;;;;;;18.21;55.05;101709.50;4887704;28;123190;-74
2022/05/22 06:44:07;;;;;;;8.98;3.47;;;;;;;18.34;55.11;101715.81;4905508;28;119917;-75
2022/05/22 06:47:12;;;;;;;12.60;3.55;;;;;;;18.52;54.72;101712.94;4910130;28;118622;-76
2022/05/22 06:50:04;;;;;;;7.82;3.70;;;;;;;18.72;54.78;101720.50;4903585;28;123671;-75
2022/05/22 06:52:44;;;;;;;9.43;3.22;;;;;;;18.91;54.60;101716.66;4904060;28;124327;-75
2022/05/22 06:55:23;;;;;;;8.82;3.25;;;;;;;19.08;53.93;101716.41;4904794;28;118907;-76
2022/05/22 06:58:09;;;;;;;7.32;3.72;;;;;;;19.29;53.73;101718.59;4900216;28;121761;-75
2022/05/22 07:01:02;;;;;;;8.43;3.47;;;;;;;19.47;53.65;101722.72;4892957;28;123999;-76
2022/05/22 07:03:43;;;;;;;5.65;2.95;;;;;;;19.67;53.52;101718.66;4903808;28;123975;-75
2022/05/22 07:06:28;;;;;;;9.75;3.83;;;;;;;19.87;52.91;101714.59;4894950;28;119305;-76
2022/05/22 07:09:27;;;;;;;7.95;3.47;;;;;;;20.03;52.21;101720.59;4876283;28;119448;-76
2022/05/22 07:12:18;;;;;;;6.45;3.63;;;;;;;20.17;51.62;101710.69;4919539;28;123560;-76
2022/05/22 07:15:07;;;;;;;7.53;3.67;;;;;;;20.28;51.37;101707.25;4899002;28;123284;-77
2022/05/22 07:17:42;;;;;;;7.20;3.25;;;;;;;20.41;51.44;101714.28;4897393;28;120508;-76
2022/05/22 07:20:42;;;;;;;7.63;3.58;;;;;;;20.58;51.39;101715.75;4902464;28;120899;-76
2022/05/22 07:23:18;;;;;;;9.93;4.10;;;;;;;20.74;50.74;101710.16;4915727;28;122353;-76
2022/05/22 07:26:05;;;;;;;9.52;3.58;;;;;;;20.87;50.92;101714.59;4915117;28;124344;-76
2022/05/22 07:28:44;;;;;;;5.80;3.53;;;;;;;20.99;50.79;101709.16;4909357;28;121050;-78
2022/05/22 07:31:40;;;;;;;;;;;;;;;21.08;51.12;101712.13;4927828;28;119069;-76
2022/05/22 07:34:26;;;;;;;7.20;3.42;;;;;;;21.12;50.18;101719.00;4928118;28;125667;-76
2022/05/22 07:37:01;;;;;;;8.43;3.85;;;;;;;21.14;49.38;101704.44;4893510;28;124632;-74
2022/05/22 07:39:47;;;;;;;8.88;3.40;;;;;;;21.18;49.55;101708.63;4903221;28;119923;-74
2022/05/22 07:42:33;;;;;;;7.10;3.60;;;;;;;21.26;49.50;101704.47;4898041;28;121660;-77
2022/05/22 07:45:24;;;;;;;9.35;3.88;;;;;;;21.34;49.09;101702.03;4876747;28;124541;-74
2022/05/22 07:48:20;;;;;;;6.43;3.83;;;;;;;21.45;49.45;101695.88;4906890;28;124424;-75
2022/05/22 07:50:57;;;;;;;5.65;3.75;;;;;;;21.60;49.38;101691.13;4891242;28;118735;-75
2022/05/22 07:53:39;;;;;;;8.63;3.83;;;;;;;21.75;49.14;101695.31;4891772;28;119527;-75
2022/05/22 07:56:25;;;;;;;10.20;3.95;;;;;;;21.92;48.71;101697.50;4891635;28;122609;-75
2022/05/22 07:59:21;;;;;;;8.82;3.83;;;;;;;22.06;48.56;101692.88;4854719;28;124436;-76
2022/05/22 08:02:13;;;;;;;8.18;3.85;;;;;;;22.22;48.43;101690.63;4892011;28;119362;-76
2022/05/22 08:04:44;;;;;;;7.40;3.75;;;;;;;22.36;47.91;101694.97;4892408;28;118290;-76
2022/05/22 08:07:20;;;;;;;8.73;4.25;;;;;;;22.46;47.65;101689.66;4908838;28;124243;-75
2022/05/22 08:10:22;;;;;;;7.63;3.35;;;;;;;22.50;46.67;101685.72;4847585;29;125055;-75
2022/05/22 08:12:53;;;;;;;5.88;3.45;;;;;;;22.50;46.33;101680.31;4883358;28;119740;-76
2022/05/22 08:15:30;;;;;;;6.47;3.53;;;;;;;22.52;46.00;101678.34;4891879;28;119604;-76
2022/05/22 08:18:23;;;;;;;8.52;3.40;;;;;;;22.60;46.37;101675.88;4906786;28;124244;-75
2022/05/22 08:20:52;;;;;;;8.25;3.30;;;;;;;22.67;46.14;101674.38;4922295;28;123450;-75
2022/05/22 08:23:22;;;;;;;5.35;3.00;;;;;;;22.73;45.54;101664.91;4893614;28;118848;-76
2022/05/22 08:25:53;;;;;;;9.10;3.30;;;;;;;22.76;45.58;101666.50;4911260;28;119154;-76
2022/05/22 08:28:22;;;;;;;7.65;3.30;;;;;;;22.80;45.59;101665.25;4894482;28;123158;-77
2022/05/22 08:30:50;;;;;;;11.90;4.55;;;;;;;22.85;45.40;101657.59;4911302;28;124585;-76
2022/05/22 08:33:18;;;;;;;8.18;3.70;;;;;;;22.92;45.50;101653.41;4894972;28;118550;-76
2022/05/22 08:35:46;;;;;;;7.82;3.40;;;;;;;22.98;45.36;101647.50;4912463;28;118746;-76
2022/05/22 08:38:13;;;;;;;8.20;4.20;;;;;;;23.05;45.48;101643.31;4911356;28;123618;-76
2022/05/22 08:40:49;;;;;;;8.10;3.58;;;;;;;23.13;45.08;101635.41;4925443;28;123693;-76
2022/05/22 08:43:31;;;;;;;6.68;3.45;;;;;;;23.18;45.06;101642.25;4894373;28;119136;-76
2022/05/22 08:46:21;;;;;;;7.70;3.47;;;;;;;23.25;44.57;101635.34;4909063;28;118948;-76
2022/05/22 08:48:54;;;;;;;8.30;3.42;;;;;;;23.30;44.64;101624.97;4894155;28;123068;-76
2022/05/22 08:51:31;;;;;;;7.60;3.20;;;;;;;23.39;43.87;101620.63;4910888;28;124007;-77
2022/05/22 08:54:11;;;;;;;8.52;3.53;;;;;;;23.37;44.09;101615.34;4926744;28;118466;-76
2022/05/22 08:59:32;;;;;;;7.57;3.30;;;;;;;23.39;43.91;101616.06;4893774;28;123016;-76
2022/05/22 09:02:13;;;;;;;10.00;3.85;;;;;;;23.42;43.45;101612.25;4890854;28;123803;-76
2022/05/22 09:04:46;;;;;;;6.32;3.30;;;;;;;23.47;43.43;101616.28;4908230;28;120438;-76
2022/05/22 09:07:32;;;;;;;7.55;3.30;;;;;;;23.50;42.98;101607.03;4909856;28;120023;-77
2022/05/22 09:10:09;;;;;;;8.23;3.45;;;;;;;23.50;42.76;101599.75;4893305;28;122913;-77
2022/05/22 09:13:05;;;;;;;8.02;3.38;;;;;;;23.54;42.95;101594.94;4894576;28;122843;-77
2022/05/22 09:16:02;;;;;;;7.63;3.70;;;;;;;23.52;43.27;101592.34;4915202;28;119202;-76
2022/05/22 09:18:36;;;;;;;5.80;3.10;;;;;;;23.59;43.34;101592.69;4912229;28;119286;-76
2022/05/22 09:21:15;;;;;;;8.45;3.80;;;;;;;23.68;42.61;101586.47;4910115;28;124777;-76
2022/05/22 09:23:56;;;;;;;8.18;4.00;;;;;;;23.67;41.94;101573.06;4910032;28;124911;-76
2022/05/22 09:26:45;;;;;;;8.10;3.83;;;;;;;23.62;42.36;101580.72;4911518;28;119759;-76
2022/05/22 09:29:27;;;;;;;7.97;3.88;;;;;;;23.62;42.79;101580.72;4894719;28;118307;-76
2022/05/22 09:32:09;;;;;;;6.72;3.40;;;;;;;23.62;42.62;101575.31;4922816;28;123853;-76
2022/05/22 09:35:14;;;;;;;7.00;3.63;;;;;;;23.68;42.75;101581.06;4909755;28;124366;-76
2022/05/22 09:37:58;;;;;;;7.85;3.78;;;;;;;23.78;42.75;101580.25;4912563;28;118518;-76
2022/05/22 09:40:33;;;;;;;7.03;3.78;;;;;;;23.88;42.94;101576.59;4911026;28;119894;-76
2022/05/22 09:43:28;;;;;;;10.85;3.75;;;;;;;24.05;43.02;101576.91;4903784;28;123469;-76
2022/05/22 09:46:19;;;;;;;9.80;4.00;;;;;;;24.20;42.36;101570.09;4919725;28;124447;-76
2022/05/22 09:49:11;;;;;;;6.40;4.10;;;;;;;24.27;41.84;101568.53;4932159;28;121604;-76
2022/05/22 09:51:59;;;;;;;8.00;4.22;;;;;;;24.34;41.25;101576.13;4920378;28;118482;-76
2022/05/22 09:55:17;;;;;;;7.10;4.38;;;;;;;24.41;41.83;101561.88;4910260;28;123792;-76
2022/05/22 09:57:56;;;;;;;10.48;4.30;;;;;;;24.49;41.38;101563.88;4889427;28;123326;-77
2022/05/22 10:00:35;;;;;;;7.57;4.45;;;;;;;24.53;41.21;101559.91;4909549;28;121436;-77
2022/05/22 10:03:34;;;;;;;8.35;4.40;;;;;;;24.53;40.67;101559.91;4911496;28;118735;-76
2022/05/22 10:06:16;;;;;;;7.13;4.53;;;;;;;24.49;40.52;101558.44;4877999;28;124727;-76
2022/05/22 10:08:56;;;;;;;10.15;4.93;;;;;;;24.46;40.19;101556.00;4899462;28;123749;-76
2022/05/22 10:11:41;;;;;;;11.95;4.35;;;;;;;24.41;40.23;101558.28;4944604;28;118625;-76
2022/05/22 10:14:23;;;;;;;7.10;4.53;;;;;;;24.42;40.42;101560.00;4903276;28;118322;-76
2022/05/22 10:17:05;;;;;;;5.55;4.50;;;;;;;24.48;40.93;101563.00;4892647;28;124152;-76
2022/05/22 10:20:00;;;;;;;7.93;4.35;;;;;;;24.61;41.02;101557.31;4912493;28;124938;-76
2022/05/22 10:23:04;;;;;;;8.80;3.70;;;;;;;24.76;41.32;101559.59;4911215;28;118898;-76
2022/05/22 10:25:35;;;;;;;13.93;4.75;;;;;;;24.90;41.63;101544.72;4912501;28;118868;-76
2022/05/22 10:28:04;;;;;;;7.03;3.92;;;;;;;24.98;41.61;101537.59;4891552;28;123266;-77
2022/05/22 10:30:45;;;;;;;6.60;3.90;;;;;;;25.08;40.38;101542.13;4895950;28;123329;-77
2022/05/22 10:33:23;;;;;;;7.00;4.13;;;;;;;25.13;39.75;101542.53;4927084;28;119153;-76
2022/05/22 10:35:57;;;;;;;11.23;5.10;;;;;;;25.10;39.14;101537.41;4914311;28;119056;-76
2022/05/22 10:38:30;;;;;;;8.18;4.88;;;;;;;25.06;38.76;101532.28;4909184;28;123884;-77
2022/05/22 10:43:47;;;;;;;9.18;4.30;;;;;;;24.89;38.72;101522.22;4909315;28;119248;-76
2022/05/22 10:46:14;;;;;;;8.88;4.50;;;;;;;24.81;38.43;101524.81;4912429;28;118973;-76
2022/05/22 10:48:55;;;;;;;6.63;4.10;;;;;;;24.67;37.84;101513.41;4913197;28;124365;-77
2022/05/22 10:51:25;;;;;;;10.02;4.43;;;;;;;24.58;38.43;101519.72;4909075;28;124207;-77
2022/05/22 10:53:56;;;;;;;7.72;4.00;;;;;;;24.55;38.63;101514.56;4913956;28;120845;-77
2022/05/22 10:56:29;;;;;;;6.40;3.95;;;;;;;24.62;38.80;101510.28;4919104;28;120379;-76
2022/05/22 10:59:07;;;;;;;9.75;4.28;;;;;;;24.71;38.72;101507.69;4910537;28;124441;-76
2022/05/22 11:01:36;;;;;;;8.05;4.13;;;;;;;24.77;38.61;101497.16;4923959;28;124564;-76
2022/05/22 11:04:09;;;;;;;6.85;4.03;;;;;;;24.86;38.41;101495.41;4938297;28;118695;-77
2022/05/22 11:06:56;;;;;;;6.43;3.60;;;;;;;24.94;38.80;101498.25;4913851;28;118987;-76
2022/05/22 11:09:29;;;;;;;7.88;3.78;;;;;;;25.05;39.36;101489.94;4928948;28;123591;-76
2022/05/22 11:12:11;;;;;;;6.45;3.83;;;;;;;25.24;38.92;101480.03;4904771;28;122599;-76
2022/05/22 11:14:39;;;;;;;6.93;4.15;;;;;;;25.35;38.49;101474.41;4926843;28;118584;-76
2022/05/22 11:17:20;;;;;;;11.23;4.78;;;;;;;25.41;38.52;101471.13;4928383;28;118615;-77
2022/05/22 11:19:54;;;;;;;6.38;4.32;;;;;;;25.49;38.64;101469.50;4917524;28;123666;-77
2022/05/22 11:22:58;;;;;;;6.35;4.20;;;;;;;25.54;37.92;101467.16;4913110;28;123973;-76
2022/05/22 11:25:45;;;;;;;8.50;4.55;;;;;;;25.52;38.23;101463.75;4917023;28;120164;-77
2022/05/22 11:28:44;;;;;;;10.90;4.43;;;;;;;25.50;38.06;101463.06;4927139;28;118538;-76
2022/05/22 11:31:27;;;;;;;7.85;4.55;;;;;;;25.53;38.49;101460.06;4909622;28;123453;-76
2022/05/22 11:34:06;;;;;;;8.73;4.28;;;;;;;25.60;38.04;101461.16;4897002;28;123530;-77
2022/05/22 11:36:55;;;;;;;6.70;4.18;;;;;;;25.63;38.19;101455.41;4896591;28;118518;-77
2022/05/22 11:40:08;;;;;;;5.82;3.88;;;;;;;25.66;37.87;101455.13;4920878;28;118136;-77
2022/05/22 11:42:39;;;;;;;6.15;4.25;;;;;;;25.75;37.32;101451.47;4928960;28;123497;-76
2022/05/22 11:45:36;;;;;;;6.40;4.05;;;;;;;25.79;36.39;101444.75;4913483;28;123026;-77
2022/05/22 11:48:36;;;;;;;8.57;4.05;;;;;;;25.62;36.02;101446.44;4947458;28;118306;-78
2022/05/22 11:51:28;;;;;;;6.75;3.80;;;;;;;25.55;36.14;101447.19;4945445;28;120778;-77
2022/05/22 11:54:19;;;;;;;8.60;4.50;;;;;;;25.53;36.42;101443.78;4918830;28;124643;-75
2022/05/22 11:57:17;;;;;;;8.43;4.20;;;;;;;25.52;36.62;101442.06;4928656;28;124234;-77
2022/05/22 12:00:12;;;;;;;7.70;4.22;;;;;;;25.48;36.70;101446.09;4926034;28;119558;-76
2022/05/22 12:02:57;;;;;;;6.55;4.15;;;;;;;25.49;36.60;101436.97;4894577;28;119231;-76
2022/05/22 12:05:24;;;;;;;;;;;;;;;25.44;37.51;101430.09;4908507;28;123884;-76
2022/05/22 12:08:25;;;;;;;8.52;4.50;;;;;;;25.47;37.34;101418.13;4922292;28;124658;-76
2022/05/22 12:11:03;;;;;;;8.15;4.35;;;;;;;25.55;36.83;101417.34;4931956;28;119976;-76
2022/05/22 12:13:40;;;;;;;8.23;4.38;;;;;;;25.59;36.80;101416.03;4906300;28;118104;-77
2022/05/22 12:16:41;;;;;;;6.53;4.22;;;;;;;25.59;36.30;101410.59;4928683;28;124743;-77
2022/05/22 12:19:33;;;;;;;7.17;4.17;;;;;;;25.58;36.60;101408.88;4890302;28;124613;-77